createdAt,value
2018-06-23T00:00:28.062Z,1004.76
2018-06-23T00:01:28.082Z,1004.78
2018-06-23T00:02:28.100Z,1004.76
2018-06-23T00:03:28.120Z,1004.78
2018-06-23T00:04:28.143Z,1004.76
2018-06-23T00:05:28.178Z,1004.74
2018-06-23T00:06:28.181Z,1004.78
2018-06-23T00:07:28.203Z,1004.78
2018-06-23T00:08:28.228Z,1004.72
2018-06-23T00:09:28.248Z,1004.75
2018-06-23T00:10:28.264Z,1004.80
2018-06-23T00:11:28.291Z,1004.77
2018-06-23T00:12:28.305Z,1004.75
2018-06-23T00:13:28.339Z,1004.76
2018-06-23T00:14:28.346Z,1004.79
2018-06-23T00:15:28.370Z,1004.77
2018-06-23T00:16:28.436Z,1004.78
2018-06-23T00:17:28.404Z,1004.78
2018-06-23T00:18:28.429Z,1004.78
2018-06-23T00:19:28.447Z,1004.78
2018-06-23T00:20:28.471Z,1004.77
2018-06-23T00:21:28.487Z,1004.75
2018-06-23T00:22:28.510Z,1004.76
2018-06-23T00:23:28.528Z,1004.78
2018-06-23T00:24:28.548Z,1004.73
2018-06-23T00:25:28.567Z,1004.75
2018-06-23T00:26:28.591Z,1004.79
2018-06-23T00:27:28.605Z,1004.74
2018-06-23T00:28:28.646Z,1004.75
2018-06-23T00:29:28.651Z,1004.75
2018-06-23T00:30:28.669Z,1004.71
2018-06-23T00:31:28.685Z,1004.68
2018-06-23T00:32:28.708Z,1004.70
2018-06-23T00:33:28.729Z,1004.63
2018-06-23T00:34:28.746Z,1004.63
2018-06-23T00:35:28.768Z,1004.58
2018-06-23T00:36:28.787Z,1004.59
2018-06-23T00:37:28.864Z,1004.58
2018-06-23T00:38:28.828Z,1004.56
2018-06-23T00:39:28.853Z,1004.56
2018-06-23T00:40:28.920Z,1004.53
2018-06-23T00:41:28.890Z,1004.55
2018-06-23T00:42:28.904Z,1004.54
2018-06-23T00:43:28.925Z,1004.51
2018-06-23T00:44:28.943Z,1004.50
2018-06-23T00:45:29.004Z,1004.50
2018-06-23T00:46:29.038Z,1004.52
2018-06-23T00:47:29.010Z,1004.51
2018-06-23T00:48:29.024Z,1004.52
2018-06-23T00:49:29.042Z,1004.53
2018-06-23T00:50:29.061Z,1004.49
2018-06-23T00:51:29.081Z,1004.48
2018-06-23T00:52:29.104Z,1004.47
2018-06-23T00:53:29.127Z,1004.48
2018-06-23T00:54:29.144Z,1004.46
2018-06-23T00:55:29.162Z,1004.48
2018-06-23T00:56:29.183Z,1004.45
2018-06-23T00:57:29.205Z,1004.45
2018-06-23T00:58:29.224Z,1004.47
2018-06-23T00:59:29.239Z,1004.48
2018-06-23T01:00:29.262Z,1004.46
2018-06-23T01:01:29.282Z,1004.47
2018-06-23T01:02:29.302Z,1004.47
2018-06-23T01:03:29.320Z,1004.52
2018-06-23T01:04:29.340Z,1004.49
2018-06-23T01:05:29.358Z,1004.52
2018-06-23T01:06:29.378Z,1004.52
2018-06-23T01:07:29.401Z,1004.51
2018-06-23T01:08:29.438Z,1004.50
2018-06-23T01:09:29.439Z,1004.47
2018-06-23T01:10:29.509Z,1004.48
2018-06-23T01:11:29.473Z,1004.49
2018-06-23T01:12:29.497Z,1004.46
2018-06-23T01:13:29.516Z,1004.48
2018-06-23T01:14:29.532Z,1004.47
2018-06-23T01:15:29.557Z,1004.48
2018-06-23T01:16:29.572Z,1004.45
2018-06-23T01:17:29.595Z,1004.47
2018-06-23T01:18:29.615Z,1004.48
2018-06-23T01:19:29.655Z,1004.46
2018-06-23T01:20:29.663Z,1004.45
2018-06-23T01:21:29.673Z,1004.48
2018-06-23T01:22:29.697Z,1004.48
2018-06-23T01:23:29.723Z,1004.44
2018-06-23T01:24:29.730Z,1004.44
2018-06-23T01:25:29.749Z,1004.42
2018-06-23T01:26:29.767Z,1004.44
2018-06-23T01:27:29.802Z,1004.44
2018-06-23T01:28:29.864Z,1004.46
2018-06-23T01:29:29.828Z,1004.42
2018-06-23T01:30:29.854Z,1004.42
2018-06-23T01:31:29.872Z,1004.40
2018-06-23T01:32:29.891Z,1004.37
2018-06-23T01:33:29.907Z,1004.39
2018-06-23T01:34:29.979Z,1004.38
2018-06-23T01:35:29.947Z,1004.38
2018-06-23T01:36:29.977Z,1004.37
2018-06-23T01:37:29.988Z,1004.38
2018-06-23T01:38:30.010Z,1004.37
2018-06-23T01:39:30.032Z,1004.40
2018-06-23T01:40:30.050Z,1004.40
2018-06-23T01:41:30.081Z,1004.35
2018-06-23T01:42:30.091Z,1004.37
2018-06-23T01:43:30.107Z,1004.35
2018-06-23T01:44:30.130Z,1004.37
2018-06-23T01:45:30.153Z,1004.33
2018-06-23T01:46:30.165Z,1004.36
2018-06-23T01:47:30.181Z,1004.37
2018-06-23T01:48:30.206Z,1004.33
2018-06-23T01:49:30.282Z,1004.36
2018-06-23T01:50:30.248Z,1004.31
2018-06-23T01:51:30.266Z,1004.31
2018-06-23T01:52:30.284Z,1004.30
2018-06-23T01:53:30.303Z,1004.32
2018-06-23T01:54:30.325Z,1004.30
2018-06-23T01:55:30.344Z,1004.29
2018-06-23T01:56:30.363Z,1004.33
2018-06-23T01:57:30.385Z,1004.29
2018-06-23T01:58:30.454Z,1004.30
2018-06-23T01:59:30.424Z,1004.26
2018-06-23T02:00:30.442Z,1004.27
2018-06-23T02:01:30.458Z,1004.29
2018-06-23T02:02:30.482Z,1004.30
2018-06-23T02:03:30.502Z,1004.30
2018-06-23T02:04:30.520Z,1004.28
2018-06-23T02:05:30.539Z,1004.28
2018-06-23T02:06:30.566Z,1004.29
2018-06-23T02:07:30.576Z,1004.23
2018-06-23T02:08:30.601Z,1004.25
2018-06-23T02:09:30.626Z,1004.20
2018-06-23T02:10:30.642Z,1004.23
2018-06-23T02:11:30.653Z,1004.24
2018-06-23T02:12:30.675Z,1004.22
2018-06-23T02:13:30.695Z,1004.20
2018-06-23T02:14:30.716Z,1004.23
2018-06-23T02:15:30.735Z,1004.18
2018-06-23T02:16:30.757Z,1004.18
2018-06-23T02:17:30.770Z,1004.20
2018-06-23T02:18:30.791Z,1004.18
2018-06-23T02:19:30.816Z,1004.15
2018-06-23T02:20:30.829Z,1004.15
2018-06-23T02:21:30.854Z,1004.10
2018-06-23T02:22:30.918Z,1004.08
2018-06-23T02:23:30.905Z,1004.08
2018-06-23T02:24:30.907Z,1004.10
2018-06-23T02:25:30.928Z,1004.14
2018-06-23T02:26:30.952Z,1004.13
2018-06-23T02:27:30.982Z,1004.11
2018-06-23T02:28:31.038Z,1004.09
2018-06-23T02:29:31.007Z,1004.10
2018-06-23T02:30:31.038Z,1004.11
2018-06-23T02:31:31.046Z,1004.10
2018-06-23T02:32:31.067Z,1004.11
2018-06-23T02:33:31.089Z,1004.12
2018-06-23T02:34:31.152Z,1004.13
2018-06-23T02:35:31.127Z,1004.12
2018-06-23T02:36:31.151Z,1004.07
2018-06-23T02:37:31.165Z,1004.08
2018-06-23T02:38:31.182Z,1004.06
2018-06-23T02:39:31.201Z,1004.04
2018-06-23T02:40:31.219Z,1004.04
2018-06-23T02:41:31.248Z,1004.03
2018-06-23T02:42:31.259Z,1004.05
2018-06-23T02:43:31.277Z,1004.02
2018-06-23T02:44:31.298Z,1004.01
2018-06-23T02:45:31.313Z,1004.02
2018-06-23T02:46:31.388Z,1004.00
2018-06-23T02:47:31.358Z,1003.95
2018-06-23T02:48:31.378Z,1003.97
2018-06-23T02:49:31.449Z,1003.95
2018-06-23T02:50:31.416Z,1003.93
2018-06-23T02:51:31.435Z,1003.90
2018-06-23T02:52:31.506Z,1003.91
2018-06-23T02:53:31.473Z,1003.93
2018-06-23T02:54:31.497Z,1003.91
2018-06-23T02:55:31.513Z,1003.91
2018-06-23T02:56:31.534Z,1003.89
2018-06-23T02:57:31.554Z,1003.89
2018-06-23T02:58:31.621Z,1003.89
2018-06-23T02:59:31.594Z,1003.87
2018-06-23T03:00:31.605Z,1003.91
2018-06-23T03:01:31.629Z,1003.90
2018-06-23T03:02:31.659Z,1003.88
2018-06-23T03:03:31.665Z,1003.85
2018-06-23T03:04:31.734Z,1003.87
2018-06-23T03:05:31.703Z,1003.85
2018-06-23T03:06:31.720Z,1003.85
2018-06-23T03:07:31.745Z,1003.84
2018-06-23T03:08:31.763Z,1003.82
2018-06-23T03:09:31.780Z,1003.82
2018-06-23T03:10:31.840Z,1003.82
2018-06-23T03:11:31.817Z,1003.82
2018-06-23T03:12:31.847Z,1003.77
2018-06-23T03:13:31.857Z,1003.76
2018-06-23T03:14:31.878Z,1003.75
2018-06-23T03:15:31.898Z,1003.73
2018-06-23T03:16:31.970Z,1003.73
2018-06-23T03:17:31.932Z,1003.71
2018-06-23T03:18:31.956Z,1003.71
2018-06-23T03:19:31.976Z,1003.72
2018-06-23T03:20:31.993Z,1003.70
2018-06-23T03:21:32.013Z,1003.72
2018-06-23T03:22:32.027Z,1003.75
2018-06-23T03:23:32.050Z,1003.74
2018-06-23T03:24:32.067Z,1003.72
2018-06-23T03:25:32.090Z,1003.73
2018-06-23T03:26:32.107Z,1003.74
2018-06-23T03:27:32.127Z,1003.73
2018-06-23T03:28:32.146Z,1003.73
2018-06-23T03:29:32.166Z,1003.72
2018-06-23T03:30:32.195Z,1003.74
2018-06-23T03:31:32.206Z,1003.73
2018-06-23T03:32:32.220Z,1003.76
2018-06-23T03:33:32.243Z,1003.72
2018-06-23T03:34:32.311Z,1003.75
2018-06-23T03:35:32.276Z,1003.71
2018-06-23T03:36:32.297Z,1003.71
2018-06-23T03:37:32.321Z,1003.70
2018-06-23T03:38:32.339Z,1003.72
2018-06-23T03:39:32.359Z,1003.69
2018-06-23T03:40:32.378Z,1003.70
2018-06-23T03:41:32.397Z,1003.68
2018-06-23T03:42:32.416Z,1003.66
2018-06-23T03:43:32.429Z,1003.66
2018-06-23T03:44:32.456Z,1003.65
2018-06-23T03:45:32.474Z,1003.62
2018-06-23T03:46:32.493Z,1003.64
2018-06-23T03:47:32.538Z,1003.61
2018-06-23T03:48:32.526Z,1003.63
2018-06-23T03:49:32.549Z,1003.62
2018-06-23T03:50:32.565Z,1003.62
2018-06-23T03:51:32.586Z,1003.62
2018-06-23T03:52:32.679Z,1003.63
2018-06-23T03:53:32.626Z,1003.61
2018-06-23T03:54:32.643Z,1003.63
2018-06-23T03:55:32.661Z,1003.61
2018-06-23T03:56:32.682Z,1003.61
2018-06-23T03:57:32.705Z,1003.62
2018-06-23T03:58:32.721Z,1003.63
2018-06-23T03:59:32.741Z,1003.60
2018-06-23T04:00:32.771Z,1003.64
2018-06-23T04:01:32.772Z,1003.64
2018-06-23T04:02:32.793Z,1003.62
2018-06-23T04:03:32.823Z,1003.63
2018-06-23T04:04:32.833Z,1003.66
2018-06-23T04:05:32.856Z,1003.64
2018-06-23T04:06:32.871Z,1003.65
2018-06-23T04:07:32.895Z,1003.66
2018-06-23T04:08:32.912Z,1003.67
2018-06-23T04:09:32.972Z,1003.63
2018-06-23T04:10:32.952Z,1003.66
2018-06-23T04:11:32.975Z,1003.63
2018-06-23T04:12:32.992Z,1003.62
2018-06-23T04:13:33.008Z,1003.63
2018-06-23T04:14:33.029Z,1003.64
2018-06-23T04:15:33.039Z,1003.61
2018-06-23T04:16:33.084Z,1003.66
2018-06-23T04:17:33.082Z,1003.66
2018-06-23T04:18:33.100Z,1003.69
2018-06-23T04:19:33.115Z,1003.61
2018-06-23T04:20:33.140Z,1003.62
2018-06-23T04:21:33.157Z,1003.64
2018-06-23T04:22:33.226Z,1003.61
2018-06-23T04:23:33.200Z,1003.66
2018-06-23T04:24:33.214Z,1003.66
2018-06-23T04:25:33.229Z,1003.68
2018-06-23T04:26:33.258Z,1003.66
2018-06-23T04:27:33.272Z,1003.71
2018-06-23T04:28:33.336Z,1003.71
2018-06-23T04:29:33.307Z,1003.71
2018-06-23T04:30:33.327Z,1003.73
2018-06-23T04:31:33.346Z,1003.73
2018-06-23T04:32:33.365Z,1003.72
2018-06-23T04:33:33.449Z,1003.70
2018-06-23T04:34:33.405Z,1003.70
2018-06-23T04:35:33.427Z,1003.76
2018-06-23T04:36:33.442Z,1003.78
2018-06-23T04:37:33.456Z,1003.80
2018-06-23T04:38:33.480Z,1003.81
2018-06-23T04:39:33.553Z,1003.80
2018-06-23T04:40:33.517Z,1003.79
2018-06-23T04:41:33.537Z,1003.79
2018-06-23T04:42:33.601Z,1003.80
2018-06-23T04:43:33.573Z,1003.85
2018-06-23T04:44:33.593Z,1003.87
2018-06-23T04:45:33.659Z,1003.89
2018-06-23T04:46:33.629Z,1003.89
2018-06-23T04:47:33.649Z,1003.87
2018-06-23T04:48:33.665Z,1003.85
2018-06-23T04:49:33.683Z,1003.85
2018-06-23T04:50:33.703Z,1003.85
2018-06-23T04:51:33.729Z,1003.87
2018-06-23T04:52:33.748Z,1003.86
2018-06-23T04:53:33.758Z,1003.85
2018-06-23T04:54:33.779Z,1003.86
2018-06-23T04:55:33.800Z,1003.86
2018-06-23T04:56:33.823Z,1003.84
2018-06-23T04:57:33.836Z,1003.88
2018-06-23T04:58:33.855Z,1003.87
2018-06-23T04:59:33.880Z,1003.88
2018-06-23T05:00:33.919Z,1003.87
2018-06-23T05:01:33.915Z,1003.89
2018-06-23T05:02:33.933Z,1003.91
2018-06-23T05:03:33.998Z,1003.89
2018-06-23T05:04:33.966Z,1003.89
2018-06-23T05:05:33.993Z,1003.89
2018-06-23T05:06:34.003Z,1003.94
2018-06-23T05:07:34.027Z,1003.92
2018-06-23T05:08:34.047Z,1003.93
2018-06-23T05:09:34.114Z,1003.93
2018-06-23T05:10:34.083Z,1003.93
2018-06-23T05:11:34.100Z,1003.94
2018-06-23T05:12:34.119Z,1003.94
2018-06-23T05:13:34.134Z,1003.96
2018-06-23T05:14:34.157Z,1003.95
2018-06-23T05:15:34.173Z,1004.00
2018-06-23T05:16:34.193Z,1003.99
2018-06-23T05:17:34.216Z,1003.99
2018-06-23T05:18:34.233Z,1004.02
2018-06-23T05:19:34.255Z,1004.02
2018-06-23T05:20:34.274Z,1004.02
2018-06-23T05:21:34.335Z,1004.04
2018-06-23T05:22:34.306Z,1004.04
2018-06-23T05:23:34.326Z,1004.02
2018-06-23T05:24:34.345Z,1004.04
2018-06-23T05:25:34.360Z,1004.02
2018-06-23T05:26:34.381Z,1004.07
2018-06-23T05:27:34.405Z,1004.04
2018-06-23T05:28:34.416Z,1004.09
2018-06-23T05:29:34.444Z,1004.05
2018-06-23T05:30:34.462Z,1004.09
2018-06-23T05:31:34.479Z,1004.09
2018-06-23T05:32:34.495Z,1004.09
2018-06-23T05:33:34.529Z,1004.09
2018-06-23T05:34:34.529Z,1004.09
2018-06-23T05:35:34.555Z,1004.10
2018-06-23T05:36:34.571Z,1004.08
2018-06-23T05:37:34.593Z,1004.10
2018-06-23T05:38:34.605Z,1004.08
2018-06-23T05:39:34.647Z,1004.11
2018-06-23T05:40:34.647Z,1004.14
2018-06-23T05:41:34.666Z,1004.10
2018-06-23T05:42:34.678Z,1004.13
2018-06-23T05:43:34.697Z,1004.13
2018-06-23T05:44:34.723Z,1004.14
2018-06-23T05:45:34.784Z,1004.13
2018-06-23T05:46:34.756Z,1004.15
2018-06-23T05:47:34.779Z,1004.16
2018-06-23T05:48:34.807Z,1004.13
2018-06-23T05:49:34.814Z,1004.15
2018-06-23T05:50:34.831Z,1004.17
2018-06-23T05:51:34.903Z,1004.18
2018-06-23T05:52:34.869Z,1004.17
2018-06-23T05:53:34.891Z,1004.19
2018-06-23T05:54:34.908Z,1004.20
2018-06-23T05:55:34.926Z,1004.17
2018-06-23T05:56:34.946Z,1004.15
2018-06-23T05:57:34.962Z,1004.17
2018-06-23T05:58:34.988Z,1004.17
2018-06-23T05:59:34.998Z,1004.18
2018-06-23T06:00:35.038Z,1004.17
2018-06-23T06:01:35.043Z,1004.17
2018-06-23T06:02:35.060Z,1004.20
2018-06-23T06:03:35.084Z,1004.17
2018-06-23T06:04:35.099Z,1004.15
2018-06-23T06:05:35.145Z,1004.14
2018-06-23T06:06:35.136Z,1004.18
2018-06-23T06:07:35.152Z,1004.22
2018-06-23T06:08:35.171Z,1004.23
2018-06-23T06:09:35.192Z,1004.23
2018-06-23T06:10:35.211Z,1004.23
2018-06-23T06:11:35.279Z,1004.22
2018-06-23T06:12:35.252Z,1004.22
2018-06-23T06:13:35.265Z,1004.23
2018-06-23T06:14:35.312Z,1004.24
2018-06-23T06:15:35.364Z,1004.24
2018-06-23T06:16:35.325Z,1004.24
2018-06-23T06:17:35.341Z,1004.26
2018-06-23T06:18:35.375Z,1004.30
2018-06-23T06:19:35.383Z,1004.33
2018-06-23T06:20:35.411Z,1004.34
2018-06-23T06:21:35.474Z,1004.34
2018-06-23T06:22:35.445Z,1004.38
2018-06-23T06:23:35.463Z,1004.35
2018-06-23T06:24:35.480Z,1004.39
2018-06-23T06:25:35.497Z,1004.39
2018-06-23T06:26:35.518Z,1004.43
2018-06-23T06:27:35.586Z,1004.39
2018-06-23T06:28:35.554Z,1004.40
2018-06-23T06:29:35.593Z,1004.43
2018-06-23T06:30:35.596Z,1004.46
2018-06-23T06:31:35.715Z,1004.47
2018-06-23T06:32:35.644Z,1004.51
2018-06-23T06:33:35.707Z,1004.53
2018-06-23T06:34:35.678Z,1004.47
2018-06-23T06:35:35.806Z,1004.51
2018-06-23T06:36:35.714Z,1004.54
2018-06-23T06:37:35.732Z,1004.55
2018-06-23T06:38:35.813Z,1004.55
2018-06-23T06:39:35.823Z,1004.55
2018-06-23T06:40:35.793Z,1004.55
2018-06-23T06:41:35.806Z,1004.56
2018-06-23T06:42:35.842Z,1004.57
2018-06-23T06:43:35.851Z,1004.56
2018-06-23T06:44:35.886Z,1004.57
2018-06-23T06:45:35.937Z,1004.58
2018-06-23T06:46:35.910Z,1004.58
2018-06-23T06:47:35.930Z,1004.54
2018-06-23T06:48:35.942Z,1004.60
2018-06-23T06:49:35.967Z,1004.59
2018-06-23T06:50:35.996Z,1004.60
2018-06-23T06:51:36.006Z,1004.58
2018-06-23T06:52:36.027Z,1004.60
2018-06-23T06:53:36.046Z,1004.58
2018-06-23T06:54:36.158Z,1004.61
2018-06-23T06:55:36.087Z,1004.58
2018-06-23T06:56:36.100Z,1004.62
2018-06-23T06:57:36.174Z,1004.64
2018-06-23T06:58:36.145Z,1004.57
2018-06-23T06:59:36.158Z,1004.61
2018-06-23T07:00:36.182Z,1004.59
2018-06-23T07:01:36.205Z,1004.66
2018-06-23T07:02:36.229Z,1004.61
2018-06-23T07:03:36.365Z,1004.63
2018-06-23T07:04:36.258Z,1004.62
2018-06-23T07:05:36.282Z,1004.65
2018-06-23T07:06:36.304Z,1004.68
2018-06-23T07:07:36.321Z,1004.64
2018-06-23T07:08:36.346Z,1004.66
2018-06-23T07:09:36.413Z,1004.63
2018-06-23T07:10:36.389Z,1004.65
2018-06-23T07:11:36.409Z,1004.67
2018-06-23T07:12:36.491Z,1004.67
2018-06-23T07:13:36.441Z,1004.67
2018-06-23T07:14:36.464Z,1004.68
2018-06-23T07:15:36.517Z,1004.70
2018-06-23T07:16:36.506Z,1004.70
2018-06-23T07:17:36.557Z,1004.74
2018-06-23T07:18:36.545Z,1004.72
2018-06-23T07:19:36.565Z,1004.70
2018-06-23T07:20:36.586Z,1004.71
2018-06-23T07:21:36.609Z,1004.71
2018-06-23T07:22:36.631Z,1004.75
2018-06-23T07:23:36.858Z,1004.73
2018-06-23T07:24:36.665Z,1004.70
2018-06-23T07:25:36.688Z,1004.73
2018-06-23T07:26:36.709Z,1004.72
2018-06-23T07:27:36.740Z,1004.71
2018-06-23T07:28:36.760Z,1004.76
2018-06-23T07:29:36.808Z,1004.74
2018-06-23T07:30:36.793Z,1004.77
2018-06-23T07:31:36.844Z,1004.80
2018-06-23T07:32:36.830Z,1004.75
2018-06-23T07:33:36.905Z,1004.75
2018-06-23T07:34:37.088Z,1004.81
2018-06-23T07:35:36.900Z,1004.79
2018-06-23T07:36:36.919Z,1004.82
2018-06-23T07:37:36.938Z,1004.80
2018-06-23T07:38:36.958Z,1004.83
2018-06-23T07:39:36.983Z,1004.84
2018-06-23T07:40:37.047Z,1004.86
2018-06-23T07:41:37.023Z,1004.80
2018-06-23T07:42:37.118Z,1004.82
2018-06-23T07:43:37.060Z,1004.79
2018-06-23T07:44:37.079Z,1004.82
2018-06-23T07:45:37.102Z,1004.83
2018-06-23T07:46:37.178Z,1004.89
2018-06-23T07:47:37.148Z,1004.85
2018-06-23T07:48:37.167Z,1004.85
2018-06-23T07:49:37.190Z,1004.88
2018-06-23T07:50:37.214Z,1004.92
2018-06-23T07:51:37.237Z,1004.93
2018-06-23T07:52:37.266Z,1004.93
2018-06-23T07:53:37.278Z,1004.94
2018-06-23T07:54:37.295Z,1004.94
2018-06-23T07:55:37.318Z,1004.92
2018-06-23T07:56:37.341Z,1004.95
2018-06-23T07:57:37.365Z,1004.95
2018-06-23T07:58:37.594Z,1004.95
2018-06-23T07:59:37.609Z,1004.96
2018-06-23T08:00:37.864Z,1004.99
2018-06-23T08:02:37.469Z,1005.02
2018-06-23T08:03:37.547Z,1005.01
2018-06-23T08:04:37.514Z,1005.04
2018-06-23T08:05:37.537Z,1005.07
2018-06-23T08:06:37.561Z,1005.05
2018-06-23T08:07:37.583Z,1005.06
2018-06-23T08:08:37.601Z,1005.09
2018-06-23T08:09:37.631Z,1005.09
2018-06-23T08:10:37.649Z,1005.05
2018-06-23T08:11:37.712Z,1005.08
2018-06-23T08:12:37.785Z,1005.09
2018-06-23T08:13:37.714Z,1005.03
2018-06-23T08:14:37.738Z,1005.08
2018-06-23T08:15:37.764Z,1005.09
2018-06-23T08:16:37.782Z,1005.14
2018-06-23T08:17:37.803Z,1005.09
2018-06-23T08:18:37.839Z,1005.12
2018-06-23T08:19:37.853Z,1005.13
2018-06-23T08:20:37.873Z,1005.16
2018-06-23T08:21:37.896Z,1005.18
2018-06-23T08:22:37.918Z,1005.24
2018-06-23T08:23:37.941Z,1005.18
2018-06-23T08:24:37.964Z,1005.16
2018-06-23T08:25:38.047Z,1005.15
2018-06-23T08:26:38.062Z,1005.11
2018-06-23T08:27:38.083Z,1005.12
2018-06-23T08:28:38.052Z,1005.14
2018-06-23T08:29:38.068Z,1005.13
2018-06-23T08:30:38.090Z,1005.12
2018-06-23T08:31:38.114Z,1005.12
2018-06-23T08:32:38.138Z,1005.15
2018-06-23T08:33:38.209Z,1005.13
2018-06-23T08:34:38.183Z,1005.12
2018-06-23T08:35:38.203Z,1005.16
2018-06-23T08:36:38.229Z,1005.15
2018-06-23T08:37:38.376Z,1005.11
2018-06-23T08:38:38.267Z,1005.17
2018-06-23T08:39:38.294Z,1005.15
2018-06-23T08:40:38.312Z,1005.13
2018-06-23T08:41:38.333Z,1005.14
2018-06-23T08:42:38.356Z,1005.11
2018-06-23T08:43:38.421Z,1005.08
2018-06-23T08:44:38.402Z,1005.12
2018-06-23T08:45:38.431Z,1005.11
2018-06-23T08:46:38.446Z,1005.11
2018-06-23T08:47:38.478Z,1005.11
2018-06-23T08:48:38.493Z,1005.09
2018-06-23T08:49:38.518Z,1005.09
2018-06-23T08:50:38.544Z,1005.10
2018-06-23T08:51:38.614Z,1005.09
2018-06-23T08:52:38.588Z,1005.14
2018-06-23T08:53:38.608Z,1005.15
2018-06-23T08:54:38.630Z,1005.14
2018-06-23T08:55:38.656Z,1005.14
2018-06-23T08:56:38.753Z,1005.12
2018-06-23T08:57:38.752Z,1005.13
2018-06-23T08:58:38.722Z,1005.16
2018-06-23T08:59:38.740Z,1005.17
2018-06-23T09:00:38.782Z,1005.12
2018-06-23T09:01:38.794Z,1005.13
2018-06-23T09:02:38.847Z,1005.12
2018-06-23T09:03:38.889Z,1005.11
2018-06-23T09:04:38.862Z,1005.09
2018-06-23T09:05:38.884Z,1005.13
2018-06-23T09:06:38.905Z,1005.16
2018-06-23T09:07:38.925Z,1005.15
2018-06-23T09:08:39.042Z,1005.17
2018-06-23T09:09:39.031Z,1005.11
2018-06-23T09:10:39.001Z,1005.15
2018-06-23T09:11:39.019Z,1005.12
2018-06-23T09:12:39.049Z,1005.17
2018-06-23T09:13:39.139Z,1005.16
2018-06-23T09:14:39.087Z,1005.14
2018-06-23T09:15:39.164Z,1005.19
2018-06-23T09:16:39.131Z,1005.23
2018-06-23T09:17:39.150Z,1005.17
2018-06-23T09:18:39.177Z,1005.16
2018-06-23T09:19:39.251Z,1005.19
2018-06-23T09:20:39.223Z,1005.16
2018-06-23T09:21:39.442Z,1005.21
2018-06-23T09:22:39.268Z,1005.20
2018-06-23T09:23:39.286Z,1005.22
2018-06-23T09:24:39.310Z,1005.20
2018-06-23T09:25:39.333Z,1005.17
2018-06-23T09:26:39.366Z,1005.17
2018-06-23T09:27:39.466Z,1005.20
2018-06-23T09:28:39.411Z,1005.18
2018-06-23T09:29:39.424Z,1005.16
2018-06-23T09:30:39.452Z,1005.19
2018-06-23T09:31:39.470Z,1005.23
2018-06-23T09:32:39.499Z,1005.19
2018-06-23T09:33:39.530Z,1005.16
2018-06-23T09:34:39.539Z,1005.17
2018-06-23T09:35:39.563Z,1005.17
2018-06-23T09:36:39.591Z,1005.16
2018-06-23T09:37:39.614Z,1005.23
2018-06-23T09:38:39.641Z,1005.20
2018-06-23T09:39:39.711Z,1005.20
2018-06-23T09:40:39.687Z,1005.23
2018-06-23T09:41:39.752Z,1005.26
2018-06-23T09:42:39.725Z,1005.28
2018-06-23T09:43:39.752Z,1005.28
2018-06-23T09:44:39.776Z,1005.28
2018-06-23T09:45:39.802Z,1005.32
2018-06-23T09:46:39.831Z,1005.35
2018-06-23T09:47:39.848Z,1005.29
2018-06-23T09:48:39.876Z,1005.32
2018-06-23T09:49:39.891Z,1005.25
2018-06-23T09:50:39.914Z,1005.30
2018-06-23T09:51:39.937Z,1005.24
2018-06-23T09:52:39.964Z,1005.32
2018-06-23T09:53:39.984Z,1005.27
2018-06-23T09:54:40.010Z,1005.33
2018-06-23T09:55:40.029Z,1005.33
2018-06-23T09:56:40.058Z,1005.29
2018-06-23T09:57:40.074Z,1005.25
2018-06-23T09:58:40.157Z,1005.25
2018-06-23T09:59:40.117Z,1005.30
2018-06-23T10:00:40.145Z,1005.29
2018-06-23T10:01:40.165Z,1005.26
2018-06-23T10:02:40.185Z,1005.26
2018-06-23T10:03:40.267Z,1005.27
2018-06-23T10:04:40.299Z,1005.24
2018-06-23T10:05:40.259Z,1005.26
2018-06-23T10:06:40.287Z,1005.26
2018-06-23T10:07:40.308Z,1005.23
2018-06-23T10:08:40.331Z,1005.23
2018-06-23T10:09:40.349Z,1005.25
2018-06-23T10:10:40.369Z,1005.24
2018-06-23T10:11:40.396Z,1005.21
2018-06-23T10:12:40.419Z,1005.21
2018-06-23T10:13:40.440Z,1005.28
2018-06-23T10:14:40.463Z,1005.22
2018-06-23T10:15:40.488Z,1005.19
2018-06-23T10:16:40.513Z,1005.21
2018-06-23T10:17:40.537Z,1005.19
2018-06-23T10:18:40.555Z,1005.17
2018-06-23T10:19:40.583Z,1005.21
2018-06-23T10:20:40.602Z,1005.17
2018-06-23T10:21:40.676Z,1005.15
2018-06-23T10:22:40.646Z,1005.10
2018-06-23T10:23:40.676Z,1005.11
2018-06-23T10:24:40.699Z,1005.15
2018-06-23T10:25:40.719Z,1005.10
2018-06-23T10:26:40.745Z,1005.09
2018-06-23T10:27:40.827Z,1005.11
2018-06-23T10:28:40.796Z,1005.08
2018-06-23T10:29:40.868Z,1005.07
2018-06-23T10:30:40.842Z,1005.08
2018-06-23T10:31:40.862Z,1005.09
2018-06-23T10:32:40.889Z,1005.15
2018-06-23T10:33:40.968Z,1005.12
2018-06-23T10:34:40.934Z,1005.14
2018-06-23T10:35:40.964Z,1005.14
2018-06-23T10:36:40.983Z,1005.14
2018-06-23T10:37:41.008Z,1005.14
2018-06-23T10:38:41.104Z,1005.12
2018-06-23T10:39:41.059Z,1005.16
2018-06-23T10:40:41.082Z,1005.14
2018-06-23T10:41:41.112Z,1005.14
2018-06-23T10:42:41.129Z,1005.12
2018-06-23T10:43:41.152Z,1005.15
2018-06-23T10:44:41.177Z,1005.16
2018-06-23T10:45:41.253Z,1005.16
2018-06-23T10:46:41.227Z,1005.23
2018-06-23T10:47:41.253Z,1005.18
2018-06-23T10:48:41.279Z,1005.23
2018-06-23T10:49:41.303Z,1005.21
2018-06-23T10:50:41.330Z,1005.20
2018-06-23T10:51:41.353Z,1005.18
2018-06-23T10:52:41.377Z,1005.22
2018-06-23T10:53:41.395Z,1005.23
2018-06-23T10:54:41.423Z,1005.22
2018-06-23T10:55:41.445Z,1005.20
2018-06-23T10:56:41.469Z,1005.23
2018-06-23T10:57:41.550Z,1005.29
2018-06-23T10:58:41.521Z,1005.29
2018-06-23T10:59:41.544Z,1005.28
2018-06-23T11:00:41.569Z,1005.27
2018-06-23T11:01:41.591Z,1005.25
2018-06-23T11:02:41.617Z,1005.29
2018-06-23T11:03:41.640Z,1005.24
2018-06-23T11:04:41.692Z,1005.24
2018-06-23T11:05:41.687Z,1005.31
2018-06-23T11:06:41.716Z,1005.25
2018-06-23T11:07:41.741Z,1005.22
2018-06-23T11:08:41.764Z,1005.28
2018-06-23T11:09:41.786Z,1005.23
2018-06-23T11:10:41.810Z,1005.26
2018-06-23T11:11:41.839Z,1005.27
2018-06-23T11:12:41.903Z,1005.25
2018-06-23T11:13:41.884Z,1005.27
2018-06-23T11:14:41.908Z,1005.32
2018-06-23T11:15:41.982Z,1005.27
2018-06-23T11:16:41.963Z,1005.28
2018-06-23T11:17:41.989Z,1005.26
2018-06-23T11:18:42.005Z,1005.23
2018-06-23T11:19:42.077Z,1005.37
2018-06-23T11:20:42.055Z,1005.35
2018-06-23T11:21:42.090Z,1005.28
2018-06-23T11:22:42.101Z,1005.26
2018-06-23T11:23:42.128Z,1005.25
2018-06-23T11:24:42.148Z,1005.21
2018-06-23T11:25:42.172Z,1005.21
2018-06-23T11:26:42.202Z,1005.17
2018-06-23T11:27:42.219Z,1005.19
2018-06-23T11:28:42.259Z,1005.22
2018-06-23T11:29:42.518Z,1005.30
2018-06-23T11:30:42.295Z,1005.32
2018-06-23T11:31:42.318Z,1005.22
2018-06-23T11:32:42.338Z,1005.21
2018-06-23T11:33:42.363Z,1005.26
2018-06-23T11:34:42.382Z,1005.33
2018-06-23T11:35:42.408Z,1005.32
2018-06-23T11:36:42.439Z,1005.30
2018-06-23T11:37:42.457Z,1005.33
2018-06-23T11:38:42.481Z,1005.29
2018-06-23T11:39:42.555Z,1005.26
2018-06-23T11:40:42.534Z,1005.26
2018-06-23T11:41:42.556Z,1005.17
2018-06-23T11:42:42.572Z,1005.21
2018-06-23T11:43:42.647Z,1005.17
2018-06-23T11:44:42.617Z,1005.17
2018-06-23T11:45:42.644Z,1005.21
2018-06-23T11:46:42.664Z,1005.14
2018-06-23T11:47:42.685Z,1005.16
2018-06-23T11:48:42.756Z,1005.13
2018-06-23T11:49:42.736Z,1005.14
2018-06-23T11:50:42.760Z,1005.09
2018-06-23T11:51:42.779Z,1005.15
2018-06-23T11:52:42.801Z,1005.16
2018-06-23T11:53:42.874Z,1005.13
2018-06-23T11:54:42.873Z,1005.11
2018-06-23T11:55:42.930Z,1005.13
2018-06-23T11:56:42.930Z,1005.10
2018-06-23T11:57:42.980Z,1005.10
2018-06-23T11:58:42.944Z,1005.13
2018-06-23T11:59:42.966Z,1005.14
2018-06-23T12:00:42.995Z,1005.15
2018-06-23T12:01:43.088Z,1005.14
2018-06-23T12:02:43.036Z,1005.19
2018-06-23T12:03:43.060Z,1005.15
2018-06-23T12:04:43.086Z,1005.20
2018-06-23T12:05:43.109Z,1005.15
2018-06-23T12:06:43.132Z,1005.19